Time;durP1;ratioP1;P1;durP2;ratioP2;P2;SDS_P1;SDS_P2;PMS_P1;PMS_P2;Temp;Humidity;BMP_temperature;BMP_pressure;BME280_temperature;BME280_humidity;BME280_pressure;Samples;Min_cycle;Max_cycle;Signal;HPM_P1;HPM_P2
2023/11/05 00:00:48;;;;;;;;;;;;;;;;;;6270373;28;19944;-78
2023/11/05 00:03:48;;;;;;;;;;;;;;;;;;6269160;28;19924;-78
2023/11/05 00:06:48;;;;;;;;;;;;;;;;;;6269730;28;20323;-77
2023/11/05 00:09:48;;;;;;;;;;;;;;;;;;6265432;28;19967;-78
2023/11/05 00:12:48;;;;;;;;;;;;;;;;;;6270162;28;20301;-77
2023/11/05 00:15:54;;;;;;;;;;;;;;;;;;6272179;28;20385;-77
2023/11/05 00:18:54;;;;;;;;;;;;;;;;;;6266888;28;19920;-78
2023/11/05 00:21:54;;;;;;;;;;;;;;;;;;6274097;28;19938;-79
2023/11/05 00:24:54;;;;;;;;;;;;;;;;;;6272925;28;20401;-77
2023/11/05 00:27:54;;;;;;;;;;;;;;;;;;6276316;28;20020;-77
2023/11/05 00:30:54;;;;;;;;;;;;;;;;;;6275673;28;19920;-78
2023/11/05 00:33:54;;;;;;;;;;;;;;;;;;6270046;28;19932;-78
2023/11/05 00:36:55;;;;;;;;;;;;;;;;;;6272159;28;19983;-77
2023/11/05 00:39:55;;;;;;;;;;;;;;;;;;6270404;28;19952;-78
2023/11/05 00:42:55;;;;;;;;;;;;;;;;;;6276934;28;20343;-78
2023/11/05 00:45:55;;;;;;;;;;;;;;;;;;6277005;28;20435;-78
2023/11/05 00:48:56;;;;;;;;;;;;;;;;;;6272869;28;20257;-77
2023/11/05 00:51:56;;;;;;;;;;;;;;;;;;6275584;28;20423;-78
2023/11/05 00:54:56;;;;;;;;;;;;;;;;;;6276660;28;19974;-77
2023/11/05 00:57:57;;;;;;;;;;;;;;;;;;6275842;28;19932;-78
2023/11/05 01:00:57;;;;;;;;;;;;;;;;;;6270532;28;20464;-78
2023/11/05 01:03:57;;;;;;;;;;;;;;;;;;6274990;28;19924;-78
2023/11/05 01:06:57;;;;;;;;;;;;;;;;;;6278887;28;20285;-77
2023/11/05 01:09:57;;;;;;;;;;;;;;;;;;6269556;28;20459;-78
2023/11/05 01:12:57;;;;;;;;;;;;;;;;;;6271720;28;19921;-78
2023/11/05 01:15:57;;;;;;;;;;;;;;;;;;6272248;28;20255;-77
2023/11/05 01:18:58;;;;;;;;;;;;;;;;;;6268860;28;19917;-78
2023/11/05 01:21:58;;;;;;;;;;;;;;;;;;6277686;28;19925;-78
2023/11/05 01:24:58;;;;;;;;;;;;;;;;;;6271964;28;19920;-77
2023/11/05 01:27:58;;;;;;;;;;;;;;;;;;6277563;28;19917;-79
2023/11/05 01:30:58;;;;;;;;;;;;;;;;;;6268924;28;20397;-78
2023/11/05 01:33:59;;;;;;;;;;;;;;;;;;6271503;28;19925;-78
2023/11/05 01:36:59;;;;;;;;;;;;;;;;;;6272942;28;19986;-78
2023/11/05 01:39:59;;;;;;;;;;;;;;;;;;6269576;28;19923;-81
2023/11/05 01:42:59;;;;;;;;;;;;;;;;;;6273497;28;19917;-81
2023/11/05 01:46:00;;;;;;;;;;;;;;;;;;6270860;28;19955;-81
2023/11/05 01:49:00;;;;;;;;;;;;;;;;;;6274118;28;19920;-81
2023/11/05 01:52:01;;;;;;;;;;;;;;;;;;6270949;28;20335;-81
2023/11/05 01:55:03;;;;;;;;;;;;;;;;;;6281856;28;20297;-81
2023/11/05 01:58:03;;;;;;;;;;;;;;;;;;6267444;28;20606;-81
2023/11/05 02:01:03;;;;;;;;;;;;;;;;;;6269996;28;19974;-81
2023/11/05 02:04:04;;;;;;;;;;;;;;;;;;6271466;28;20321;-81
2023/11/05 02:07:04;;;;;;;;;;;;;;;;;;6276213;28;20344;-81
2023/11/05 02:10:04;;;;;;;;;;;;;;;;;;6267062;28;20433;-81
2023/11/05 02:13:06;;;;;;;;;;;;;;;;;;6275041;28;19951;-80
2023/11/05 02:16:07;;;;;;;;;;;;;;;;;;6271692;28;19916;-81
2023/11/05 02:19:07;;;;;;;;;;;;;;;;;;6274870;28;20285;-81
2023/11/05 02:22:14;;;;;;;;;;;;;;;;;;6282413;28;19979;-81
2023/11/05 02:25:18;;;;;;;;;;;;;;;;;;6273730;28;20002;-81
2023/11/05 02:28:18;;;;;;;;;;;;;;;;;;6270300;28;19951;-81
2023/11/05 02:31:19;;;;;;;;;;;;;;;;;;6269469;28;19971;-81
2023/11/05 02:34:19;;;;;;;;;;;;;;;;;;6282800;28;19925;-82
2023/11/05 02:37:19;;;;;;;;;;;;;;;;;;6266985;28;19929;-81
2023/11/05 02:40:19;;;;;;;;;;;;;;;;;;6266947;28;19912;-81
2023/11/05 02:43:19;;;;;;;;;;;;;;;;;;6270867;28;19913;-81
2023/11/05 02:46:19;;;;;;;;;;;;;;;;;;6269997;28;19940;-82
2023/11/05 02:49:20;;;;;;;;;;;;;;;;;;6268842;28;20073;-81
2023/11/05 02:52:21;;;;;;;;;;;;;;;;;;6266221;28;19925;-81
2023/11/05 02:55:21;;;;;;;;;;;;;;;;;;6268155;28;19927;-81
2023/11/05 02:58:21;;;;;;;;;;;;;;;;;;6268867;28;19921;-81
2023/11/05 03:01:22;;;;;;;;;;;;;;;;;;6270221;28;22650;-81
2023/11/05 03:04:22;;;;;;;;;;;;;;;;;;6266603;28;19940;-81
2023/11/05 03:07:22;;;;;;;;;;;;;;;;;;6268189;28;19956;-80
2023/11/05 03:10:22;;;;;;;;;;;;;;;;;;6267175;28;20003;-81
2023/11/05 03:13:22;;;;;;;;;;;;;;;;;;6268404;28;19946;-81
2023/11/05 03:16:22;;;;;;;;;;;;;;;;;;6270587;28;19913;-81
2023/11/05 03:19:22;;;;;;;;;;;;;;;;;;6269550;28;20427;-81
2023/11/05 03:22:23;;;;;;;;;;;;;;;;;;6280398;28;19925;-81
2023/11/05 03:25:23;;;;;;;;;;;;;;;;;;6269320;28;19925;-81
2023/11/05 03:28:23;;;;;;;;;;;;;;;;;;6268243;28;20289;-81
2023/11/05 03:31:24;;;;;;;;;;;;;;;;;;6274341;28;19979;-81
2023/11/05 03:34:24;;;;;;;;;;;;;;;;;;6269363;28;20019;-81
2023/11/05 03:37:24;;;;;;;;;;;;;;;;;;6282301;28;19923;-81
2023/11/05 03:40:24;;;;;;;;;;;;;;;;;;6287133;28;19961;-81
2023/11/05 03:43:25;;;;;;;;;;;;;;;;;;6286311;28;20380;-81
2023/11/05 03:46:25;;;;;;;;;;;;;;;;;;6270022;28;19978;-81
2023/11/05 03:49:25;;;;;;;;;;;;;;;;;;6266250;28;19917;-82
2023/11/05 03:52:25;;;;;;;;;;;;;;;;;;6266843;28;19998;-82
2023/11/05 03:55:25;;;;;;;;;;;;;;;;;;6272454;28;19921;-82
2023/11/05 03:58:25;;;;;;;;;;;;;;;;;;6266777;28;19917;-81
2023/11/05 04:01:26;;;;;;;;;;;;;;;;;;6270585;28;19925;-82
2023/11/05 04:04:27;;;;;;;;;;;;;;;;;;6269742;28;20532;-82
2023/11/05 04:07:27;;;;;;;;;;;;;;;;;;6271539;28;19921;-78
2023/11/05 04:10:27;;;;;;;;;;;;;;;;;;6267675;28;19924;-79
2023/11/05 04:13:27;;;;;;;;;;;;;;;;;;6266885;28;19982;-79
2023/11/05 04:16:28;;;;;;;;;;;;;;;;;;6268980;28;19917;-78
2023/11/05 04:19:28;;;;;;;;;;;;;;;;;;6281985;28;19951;-78
2023/11/05 04:22:28;;;;;;;;;;;;;;;;;;6271823;28;19931;-79
2023/11/05 04:25:28;;;;;;;;;;;;;;;;;;6268466;28;20475;-79
2023/11/05 04:28:28;;;;;;;;;;;;;;;;;;6279993;28;19917;-78
2023/11/05 04:31:28;;;;;;;;;;;;;;;;;;6267477;28;19971;-79
2023/11/05 04:34:32;;;;;;;;;;;;;;;;;;6265276;28;20689;-79
2023/11/05 04:37:32;;;;;;;;;;;;;;;;;;6270536;28;19913;-78
2023/11/05 04:40:32;;;;;;;;;;;;;;;;;;6269530;28;19912;-79
2023/11/05 04:43:32;;;;;;;;;;;;;;;;;;6265866;28;20381;-79
2023/11/05 04:46:32;;;;;;;;;;;;;;;;;;6266455;28;19975;-79
2023/11/05 04:49:32;;;;;;;;;;;;;;;;;;6262796;28;19952;-79
2023/11/05 04:52:33;;;;;;;;;;;;;;;;;;6272220;28;19995;-80
2023/11/05 04:55:33;;;;;;;;;;;;;;;;;;6269374;28;19923;-79
2023/11/05 04:58:33;;;;;;;;;;;;;;;;;;6264485;28;19920;-79
2023/11/05 05:01:33;;;;;;;;;;;;;;;;;;6271640;28;19960;-79
2023/11/05 05:04:33;;;;;;;;;;;;;;;;;;6266626;28;19917;-79
2023/11/05 05:07:33;;;;;;;;;;;;;;;;;;6286360;28;19959;-79
2023/11/05 05:10:34;;;;;;;;;;;;;;;;;;6284758;28;20297;-80
2023/11/05 05:13:34;;;;;;;;;;;;;;;;;;6287804;28;19921;-80
2023/11/05 05:16:34;;;;;;;;;;;;;;;;;;6271910;28;19956;-80
2023/11/05 05:19:34;;;;;;;;;;;;;;;;;;6272984;28;19919;-79
2023/11/05 05:22:34;;;;;;;;;;;;;;;;;;6276171;28;19928;-80
2023/11/05 05:25:34;;;;;;;;;;;;;;;;;;6267331;28;19948;-82
2023/11/05 05:28:34;;;;;;;;;;;;;;;;;;6274354;28;19921;-79
2023/11/05 05:31:35;;;;;;;;;;;;;;;;;;6276018;28;19924;-80
2023/11/05 05:34:35;;;;;;;;;;;;;;;;;;6272576;28;19917;-79
2023/11/05 05:37:35;;;;;;;;;;;;;;;;;;6270317;28;19966;-79
2023/11/05 05:40:35;;;;;;;;;;;;;;;;;;6270236;28;19920;-80
2023/11/05 05:43:35;;;;;;;;;;;;;;;;;;6271794;28;20003;-79
2023/11/05 05:46:36;;;;;;;;;;;;;;;;;;6274644;28;19912;-79
2023/11/05 05:49:36;;;;;;;;;;;;;;;;;;6270014;28;20437;-79
2023/11/05 05:52:36;;;;;;;;;;;;;;;;;;6273368;28;20015;-79
2023/11/05 05:55:36;;;;;;;;;;;;;;;;;;6270281;28;19921;-79
2023/11/05 05:58:36;;;;;;;;;;;;;;;;;;6272690;28;20271;-80
2023/11/05 06:01:36;;;;;;;;;;;;;;;;;;6289233;28;19920;-79
2023/11/05 06:04:37;;;;;;;;;;;;;;;;;;6269089;28;20541;-81
2023/11/05 06:07:37;;;;;;;;;;;;;;;;;;6271189;28;19921;-80
2023/11/05 06:10:37;;;;;;;;;;;;;;;;;;6270811;28;19932;-80
2023/11/05 06:13:37;;;;;;;;;;;;;;;;;;6275207;28;20276;-80
2023/11/05 06:16:37;;;;;;;;;;;;;;;;;;6270563;28;19928;-80
2023/11/05 06:19:37;;;;;;;;;;;;;;;;;;6283642;28;20325;-80
2023/11/05 06:22:37;;;;;;;;;;;;;;;;;;6273343;28;19925;-80
2023/11/05 06:25:37;;;;;;;;;;;;;;;;;;6270663;28;19921;-80
2023/11/05 06:28:38;;;;;;;;;;;;;;;;;;6274047;28;19920;-83
2023/11/05 06:31:38;;;;;;;;;;;;;;;;;;6275567;28;19917;-84
2023/11/05 06:34:40;;;;;;;;;;;;;;;;;;6269564;28;20747;-83
2023/11/05 06:37:40;;;;;;;;;;;;;;;;;;6271051;28;19923;-83
2023/11/05 06:40:40;;;;;;;;;;;;;;;;;;6276036;28;19921;-83
2023/11/05 06:43:41;;;;;;;;;;;;;;;;;;6294291;28;19921;-83
2023/11/05 06:46:41;;;;;;;;;;;;;;;;;;6280186;28;19928;-84
2023/11/05 06:49:41;;;;;;;;;;;;;;;;;;6268542;28;19921;-83
2023/11/05 06:52:41;;;;;;;;;;;;;;;;;;6276018;28;20366;-83
2023/11/05 06:55:42;;;;;;;;;;;;;;;;;;5926770;28;9999937;-83
2023/11/05 06:58:42;;;;;;;;;;;;;;;;;;6279588;28;19931;-83
2023/11/05 07:01:43;;;;;;;;;;;;;;;;;;6281203;28;19920;-84
2023/11/05 07:04:44;;;;;;;;;;;;;;;;;;6274964;28;19995;-83
2023/11/05 07:07:44;;;;;;;;;;;;;;;;;;6281774;28;19927;-83
2023/11/05 07:10:44;;;;;;;;;;;;;;;;;;6292668;28;19917;-83
2023/11/05 07:13:44;;;;;;;;;;;;;;;;;;6295903;28;19924;-83
2023/11/05 07:16:44;;;;;;;;;;;;;;;;;;6278241;28;20365;-83
2023/11/05 07:19:44;;;;;;;;;;;;;;;;;;6272738;28;19962;-83
2023/11/05 07:22:46;;;;;;;;;;;;;;;;;;6273817;28;19931;-83
2023/11/05 07:25:46;;;;;;;;;;;;;;;;;;6293902;28;20376;-83
2023/11/05 07:28:47;;;;;;;;;;;;;;;;;;6291437;28;19912;-83
2023/11/05 07:31:47;;;;;;;;;;;;;;;;;;6275222;28;20093;-83
2023/11/05 07:34:47;;;;;;;;;;;;;;;;;;6273444;28;19917;-83
2023/11/05 07:37:48;;;;;;;;;;;;;;;;;;6279333;28;19935;-83
2023/11/05 07:40:48;;;;;;;;;;;;;;;;;;6281965;28;19925;-83
2023/11/05 07:43:49;;;;;;;;;;;;;;;;;;6281375;28;19925;-83
2023/11/05 07:46:49;;;;;;;;;;;;;;;;;;6298475;28;19919;-83
2023/11/05 07:49:49;;;;;;;;;;;;;;;;;;6294836;28;19916;-83
2023/11/05 07:52:49;;;;;;;;;;;;;;;;;;6296853;28;19916;-83
2023/11/05 07:55:49;;;;;;;;;;;;;;;;;;6287372;28;19966;-83
2023/11/05 07:58:50;;;;;;;;;;;;;;;;;;6293744;28;19935;-83
2023/11/05 08:01:50;;;;;;;;;;;;;;;;;;6293697;28;19955;-83
2023/11/05 08:04:51;;;;;;;;;;;;;;;;;;6290357;28;19920;-83
2023/11/05 08:07:51;;;;;;;;;;;;;;;;;;6294819;28;19923;-83
2023/11/05 08:10:51;;;;;;;;;;;;;;;;;;6294803;28;19921;-83
2023/11/05 08:13:51;;;;;;;;;;;;;;;;;;6295420;28;19927;-82
2023/11/05 08:16:52;;;;;;;;;;;;;;;;;;6277128;28;20274;-83
2023/11/05 08:19:52;;;;;;;;;;;;;;;;;;6292572;28;20008;-83
2023/11/05 08:22:53;;;;;;;;;;;;;;;;;;6282661;28;19947;-83
2023/11/05 08:25:53;;;;;;;;;;;;;;;;;;6289428;28;19949;-82
2023/11/05 08:28:54;;;;;;;;;;;;;;;;;;6288206;28;20011;-83
2023/11/05 08:31:54;;;;;;;;;;;;;;;;;;6285199;28;19921;-82
2023/11/05 08:34:54;;;;;;;;;;;;;;;;;;6292840;28;19956;-83
2023/11/05 08:37:57;;;;;;;;;;;;;;;;;;6297116;28;20070;-82
2023/11/05 08:40:57;;;;;;;;;;;;;;;;;;6291121;28;19912;-83
2023/11/05 08:43:57;;;;;;;;;;;;;;;;;;6299255;28;19955;-83
2023/11/05 08:46:57;;;;;;;;;;;;;;;;;;6299612;28;19909;-82
2023/11/05 08:49:57;;;;;;;;;;;;;;;;;;6279335;28;19970;-83
2023/11/05 08:52:57;;;;;;;;;;;;;;;;;;6294477;28;19917;-82
2023/11/05 08:55:57;;;;;;;;;;;;;;;;;;5953098;28;10000268;-82
2023/11/05 08:58:57;;;;;;;;;;;;;;;;;;6296014;28;19912;-82
2023/11/05 09:01:58;;;;;;;;;;;;;;;;;;6298646;28;19916;-83
2023/11/05 09:04:58;;;;;;;;;;;;;;;;;;6277299;28;19909;-83
2023/11/05 09:07:58;;;;;;;;;;;;;;;;;;6280710;28;20354;-83
2023/11/05 09:10:59;;;;;;;;;;;;;;;;;;6277496;28;19916;-83
2023/11/05 09:13:59;;;;;;;;;;;;;;;;;;6280095;28;19920;-83
2023/11/05 09:16:59;;;;;;;;;;;;;;;;;;6270180;28;20014;-83
2023/11/05 09:19:59;;;;;;;;;;;;;;;;;;6273449;28;19919;-83
2023/11/05 09:39:34;;;;;;;;;;;;;;;;;;5386443;28;19920;-83
2023/11/05 09:42:34;;;;;;;;;;;;;;;;;;6275632;28;19935;-84
2023/11/05 09:45:34;;;;;;;;;;;;;;;;;;6271350;28;20258;-83
2023/11/05 09:48:35;;;;;;;;;;;;;;;;;;6273076;28;19917;-83
2023/11/05 09:51:36;;;;;;;;;;;;;;;;;;6274188;28;19921;-83
2023/11/05 09:54:40;;;;;;;;;;;;;;;;;;6275497;28;20003;-83
2023/11/05 09:57:40;;;;;;;;;;;;;;;;;;6273245;28;19995;-79
2023/11/05 10:00:40;;;;;;;;;;;;;;;;;;6276705;28;19912;-79
2023/11/05 10:03:40;;;;;;;;;;;;;;;;;;6283072;28;19973;-79
2023/11/05 10:06:40;;;;;;;;;;;;;;;;;;6274320;28;19917;-79
2023/11/05 10:09:41;;;;;;;;;;;;;;;;;;6271662;28;20011;-79
2023/11/05 10:12:41;;;;;;;;;;;;;;;;;;6289935;28;19920;-80
2023/11/05 10:15:42;;;;;;;;;;;;;;;;;;6275656;28;19916;-79
2023/11/05 10:18:44;;;;;;;;;;;;;;;;;;6272380;28;19917;-79
2023/11/05 10:21:45;;;;;;;;;;;;;;;;;;6270375;28;20003;-79
2023/11/05 10:24:45;;;;;;;;;;;;;;;;;;6272901;28;19919;-79
2023/11/05 10:27:45;;;;;;;;;;;;;;;;;;6274322;28;19943;-78
2023/11/05 10:30:45;;;;;;;;;;;;;;;;;;6274218;28;20062;-79
2023/11/05 10:33:45;;;;;;;;;;;;;;;;;;6278104;28;20354;-80
2023/11/05 10:36:45;;;;;;;;;;;;;;;;;;6289656;28;19954;-79
2023/11/05 10:39:46;;;;;;;;;;;;;;;;;;6273346;28;19921;-79
2023/11/05 10:42:46;;;;;;;;;;;;;;;;;;6272369;28;19960;-79
2023/11/05 10:45:46;;;;;;;;;;;;;;;;;;6273458;28;20020;-79
2023/11/05 10:48:46;;;;;;;;;;;;;;;;;;6274928;28;19917;-80
2023/11/05 10:51:46;;;;;;;;;;;;;;;;;;6268842;28;20553;-79
2023/11/05 10:54:46;;;;;;;;;;;;;;;;;;6287268;28;19986;-79
2023/11/05 10:57:47;;;;;;;;;;;;;;;;;;6274910;28;19920;-79
2023/11/05 11:00:47;;;;;;;;;;;;;;;;;;6296563;28;19927;-79
2023/11/05 11:03:47;;;;;;;;;;;;;;;;;;6297089;28;19916;-82
2023/11/05 11:06:48;;;;;;;;;;;;;;;;;;6284973;28;19912;-79
2023/11/05 11:09:49;;;;;;;;;;;;;;;;;;6293390;28;19917;-80
2023/11/05 11:12:49;;;;;;;;;;;;;;;;;;6273964;28;19966;-78
2023/11/05 11:15:49;;;;;;;;;;;;;;;;;;6299675;28;19920;-79
2023/11/05 11:18:49;;;;;;;;;;;;;;;;;;6278934;28;19913;-79
2023/11/05 11:21:50;;;;;;;;;;;;;;;;;;6272998;28;19921;-78
2023/11/05 11:24:50;;;;;;;;;;;;;;;;;;6271366;28;19921;-79
2023/11/05 11:27:50;;;;;;;;;;;;;;;;;;6290419;28;20317;-78
2023/11/05 11:30:51;;;;;;;;;;;;;;;;;;6273494;28;19924;-78
2023/11/05 11:33:52;;;;;;;;;;;;;;;;;;6274741;28;20020;-79
2023/11/05 11:36:52;;;;;;;;;;;;;;;;;;6269381;28;19913;-78
2023/11/05 11:39:54;;;;;;;;;;;;;;;;;;6272548;28;20574;-79
2023/11/05 11:42:55;;;;;;;;;;;;;;;;;;6274108;28;20007;-79
2023/11/05 11:45:55;;;;;;;;;;;;;;;;;;6275637;28;20430;-79
2023/11/05 11:48:55;;;;;;;;;;;;;;;;;;6273440;28;19912;-78
2023/11/05 11:51:55;;;;;;;;;;;;;;;;;;6271813;28;19947;-79
2023/11/05 11:54:56;;;;;;;;;;;;;;;;;;6274430;28;19959;-79
2023/11/05 11:57:57;;;;;;;;;;;;;;;;;;6274489;28;19920;-79
2023/11/05 12:00:58;;;;;;;;;;;;;;;;;;6281681;28;19912;-79
2023/11/05 12:03:58;;;;;;;;;;;;;;;;;;6284786;28;20303;-79
2023/11/05 12:06:58;;;;;;;;;;;;;;;;;;6273289;28;20023;-79
2023/11/05 12:09:58;;;;;;;;;;;;;;;;;;6277695;28;19928;-79
2023/11/05 12:12:59;;;;;;;;;;;;;;;;;;6271859;28;19917;-79
2023/11/05 12:16:00;;;;;;;;;;;;;;;;;;6274675;28;19947;-81
2023/11/05 12:19:00;;;;;;;;;;;;;;;;;;6275748;28;20278;-79
2023/11/05 12:22:01;;;;;;;;;;;;;;;;;;6279368;28;19932;-79
2023/11/05 12:25:01;;;;;;;;;;;;;;;;;;6276489;28;20019;-79
2023/11/05 12:28:01;;;;;;;;;;;;;;;;;;6281098;28;19982;-78
2023/11/05 12:31:03;;;;;;;;;;;;;;;;;;6295104;28;20059;-80
2023/11/05 12:34:03;;;;;;;;;;;;;;;;;;6298257;28;19960;-80
2023/11/05 12:37:03;;;;;;;;;;;;;;;;;;6294040;28;20388;-80
2023/11/05 12:40:04;;;;;;;;;;;;;;;;;;6278951;28;20352;-80
2023/11/05 12:43:05;;;;;;;;;;;;;;;;;;6275829;28;20278;-79
2023/11/05 12:46:05;;;;;;;;;;;;;;;;;;6286001;28;19944;-80
2023/11/05 12:49:06;;;;;;;;;;;;;;;;;;6274858;28;19913;-81
2023/11/05 12:52:06;;;;;;;;;;;;;;;;;;5949497;28;9999916;-80
2023/11/05 12:55:06;;;;;;;;;;;;;;;;;;6275405;28;19974;-81
2023/11/05 12:58:06;;;;;;;;;;;;;;;;;;6275089;28;19923;-80
2023/11/05 13:01:06;;;;;;;;;;;;;;;;;;6278593;28;20001;-80
2023/11/05 13:04:09;;;;;;;;;;;;;;;;;;6272755;28;19971;-79
2023/11/05 13:07:09;;;;;;;;;;;;;;;;;;5929469;28;10000484;-79
2023/11/05 13:10:09;;;;;;;;;;;;;;;;;;6273064;28;19918;-78
2023/11/05 13:13:09;;;;;;;;;;;;;;;;;;6281560;28;20516;-79
2023/11/05 13:16:09;;;;;;;;;;;;;;;;;;6292301;28;19927;-78
2023/11/05 13:19:11;;;;;;;;;;;;;;;;;;6273047;28;19920;-80
2023/11/05 13:22:11;;;;;;;;;;;;;;;;;;6293943;28;19920;-80
2023/11/05 13:25:11;;;;;;;;;;;;;;;;;;6275640;28;20263;-79
2023/11/05 13:28:11;;;;;;;;;;;;;;;;;;6279131;28;19945;-87
2023/11/05 13:31:12;;;;;;;;;;;;;;;;;;6278127;28;19927;-87
2023/11/05 13:34:13;;;;;;;;;;;;;;;;;;6282398;28;20377;-86
2023/11/05 13:37:14;;;;;;;;;;;;;;;;;;6278661;28;19931;-86
2023/11/05 13:40:15;;;;;;;;;;;;;;;;;;6274596;28;19929;-86
2023/11/05 13:43:15;;;;;;;;;;;;;;;;;;6278709;28;20482;-86
2023/11/05 13:46:15;;;;;;;;;;;;;;;;;;6276016;28;19912;-86
2023/11/05 13:49:15;;;;;;;;;;;;;;;;;;6276011;28;19946;-86
2023/11/05 13:52:16;;;;;;;;;;;;;;;;;;6277432;28;19943;-86
2023/11/05 13:55:16;;;;;;;;;;;;;;;;;;6276162;28;19970;-85
2023/11/05 13:58:19;;;;;;;;;;;;;;;;;;6278036;28;20335;-85
2023/11/05 14:01:21;;;;;;;;;;;;;;;;;;6276542;28;19952;-82
2023/11/05 14:04:22;;;;;;;;;;;;;;;;;;6281035;28;19965;-83
2023/11/05 14:07:22;;;;;;;;;;;;;;;;;;6275301;28;20324;-86
2023/11/05 14:10:22;;;;;;;;;;;;;;;;;;6278514;28;19927;-84
2023/11/05 14:13:22;;;;;;;;;;;;;;;;;;6278588;28;19962;-82
2023/11/05 14:16:22;;;;;;;;;;;;;;;;;;6290278;28;20005;-82
2023/11/05 14:19:23;;;;;;;;;;;;;;;;;;6277932;28;19917;-85
2023/11/05 14:22:23;;;;;;;;;;;;;;;;;;6300197;28;19912;-85
2023/11/05 14:25:23;;;;;;;;;;;;;;;;;;6277069;28;19936;-81
2023/11/05 14:28:23;;;;;;;;;;;;;;;;;;6280139;28;20423;-86
2023/11/05 14:31:23;;;;;;;;;;;;;;;;;;6274422;28;19920;-87
2023/11/05 14:34:23;;;;;;;;;;;;;;;;;;6282069;28;19924;-86
2023/11/05 14:37:24;;;;;;;;;;;;;;;;;;6274156;28;20000;-82
2023/11/05 14:40:24;;;;;;;;;;;;;;;;;;6276785;28;19927;-79
2023/11/05 14:43:25;;;;;;;;;;;;;;;;;;6287559;28;20372;-82
2023/11/05 14:46:25;;;;;;;;;;;;;;;;;;6275846;28;20284;-79
2023/11/05 14:49:25;;;;;;;;;;;;;;;;;;6295751;28;19917;-80
2023/11/05 14:52:25;;;;;;;;;;;;;;;;;;6290631;28;20258;-80
2023/11/05 14:55:25;;;;;;;;;;;;;;;;;;6275051;28;19970;-85
2023/11/05 14:58:26;;;;;;;;;;;;;;;;;;6293035;28;19913;-80
2023/11/05 15:01:27;;;;;;;;;;;;;;;;;;6273838;28;19920;-81
2023/11/05 15:04:27;;;;;;;;;;;;;;;;;;6288535;28;19925;-81
2023/11/05 15:07:28;;;;;;;;;;;;;;;;;;6274175;28;19958;-81
2023/11/05 15:10:28;;;;;;;;;;;;;;;;;;5941374;28;9999922;-80
2023/11/05 15:13:28;;;;;;;;;;;;;;;;;;6277039;28;20377;-81
2023/11/05 15:16:30;;;;;;;;;;;;;;;;;;6290246;28;19958;-80
2023/11/05 15:19:30;;;;;;;;;;;;;;;;;;6276488;28;20019;-80
2023/11/05 15:22:30;;;;;;;;;;;;;;;;;;6276385;28;19927;-82
2023/11/05 15:25:30;;;;;;;;;;;;;;;;;;6278596;28;19920;-80
2023/11/05 15:28:30;;;;;;;;;;;;;;;;;;6278355;28;19912;-81
2023/11/05 15:31:30;;;;;;;;;;;;;;;;;;6271621;28;19939;-81
2023/11/05 15:34:30;;;;;;;;;;;;;;;;;;6291179;28;20297;-80
2023/11/05 15:37:31;;;;;;;;;;;;;;;;;;6271558;28;19956;-80
2023/11/05 15:40:31;;;;;;;;;;;;;;;;;;6275398;28;20000;-80
2023/11/05 15:43:34;;;;;;;;;;;;;;;;;;6274261;28;19916;-80
2023/11/05 15:46:34;;;;;;;;;;;;;;;;;;6275387;28;19920;-80
2023/11/05 15:49:36;;;;;;;;;;;;;;;;;;6289386;28;19990;-89
2023/11/05 15:52:36;;;;;;;;;;;;;;;;;;6267710;28;19917;-89
2023/11/05 15:55:36;;;;;;;;;;;;;;;;;;6273744;28;19917;-89
2023/11/05 15:58:36;;;;;;;;;;;;;;;;;;6291754;28;20242;-89
2023/11/05 16:01:37;;;;;;;;;;;;;;;;;;6273187;28;20396;-89
2023/11/05 16:04:37;;;;;;;;;;;;;;;;;;6283826;28;19917;-89
2023/11/05 16:07:38;;;;;;;;;;;;;;;;;;6273343;28;19909;-90
2023/11/05 16:10:38;;;;;;;;;;;;;;;;;;6293870;28;20279;-89
2023/11/05 16:13:38;;;;;;;;;;;;;;;;;;6272255;28;19920;-89
2023/11/05 16:16:38;;;;;;;;;;;;;;;;;;6287305;28;19958;-89
2023/11/05 16:19:39;;;;;;;;;;;;;;;;;;6273762;28;19913;-89
2023/11/05 16:22:39;;;;;;;;;;;;;;;;;;6286502;28;19919;-89
2023/11/05 16:25:39;;;;;;;;;;;;;;;;;;6299806;28;20094;-89
2023/11/05 16:28:39;;;;;;;;;;;;;;;;;;6279892;28;19920;-88
2023/11/05 16:31:39;;;;;;;;;;;;;;;;;;6277192;28;20157;-89
2023/11/05 16:34:43;;;;;;;;;;;;;;;;;;6274880;28;20427;-89
2023/11/05 16:37:43;;;;;;;;;;;;;;;;;;6281145;28;19940;-89
2023/11/05 16:40:43;;;;;;;;;;;;;;;;;;6275585;28;19919;-89
2023/11/05 16:43:44;;;;;;;;;;;;;;;;;;6276782;28;20051;-89
2023/11/05 16:46:44;;;;;;;;;;;;;;;;;;6281094;28;19935;-89
2023/11/05 16:49:44;;;;;;;;;;;;;;;;;;6279083;28;19920;-89
2023/11/05 16:52:44;;;;;;;;;;;;;;;;;;6280985;28;19925;-88
2023/11/05 16:55:44;;;;;;;;;;;;;;;;;;6276376;28;19946;-89
2023/11/05 16:58:44;;;;;;;;;;;;;;;;;;6287454;28;19953;-82
2023/11/05 17:01:45;;;;;;;;;;;;;;;;;;6275503;28;19966;-81
2023/11/05 17:04:46;;;;;;;;;;;;;;;;;;6291629;28;19912;-80
2023/11/05 17:07:46;;;;;;;;;;;;;;;;;;6275603;28;19921;-81
2023/11/05 17:10:47;;;;;;;;;;;;;;;;;;6276804;28;20011;-80
2023/11/05 17:13:47;;;;;;;;;;;;;;;;;;6275260;28;20321;-81
2023/11/05 17:16:47;;;;;;;;;;;;;;;;;;6281582;28;19946;-80
2023/11/05 17:19:47;;;;;;;;;;;;;;;;;;6280035;28;19913;-81
2023/11/05 17:22:48;;;;;;;;;;;;;;;;;;6296620;28;19920;-81
2023/11/05 17:25:48;;;;;;;;;;;;;;;;;;6280806;28;19916;-80
2023/11/05 17:28:48;;;;;;;;;;;;;;;;;;6276528;28;19912;-80
2023/11/05 17:31:48;;;;;;;;;;;;;;;;;;6276810;28;19921;-80
2023/11/05 17:34:48;;;;;;;;;;;;;;;;;;6275249;28;19917;-80
2023/11/05 17:37:48;;;;;;;;;;;;;;;;;;6289508;28;19917;-81
2023/11/05 17:40:48;;;;;;;;;;;;;;;;;;6271707;28;19924;-80
2023/11/05 17:43:49;;;;;;;;;;;;;;;;;;6286743;28;19913;-80
2023/11/05 17:46:49;;;;;;;;;;;;;;;;;;6291586;28;19921;-81
2023/11/05 17:49:49;;;;;;;;;;;;;;;;;;5936876;28;10000287;-80
2023/11/05 17:52:49;;;;;;;;;;;;;;;;;;6276172;28;20362;-80
2023/11/05 17:55:49;;;;;;;;;;;;;;;;;;6273376;28;19920;-80
2023/11/05 17:58:49;;;;;;;;;;;;;;;;;;6276006;28;19917;-80
2023/11/05 18:01:49;;;;;;;;;;;;;;;;;;6274131;28;19921;-82
2023/11/05 18:04:50;;;;;;;;;;;;;;;;;;6268183;28;19921;-81
2023/11/05 18:07:50;;;;;;;;;;;;;;;;;;6279353;28;20009;-88
2023/11/05 18:10:50;;;;;;;;;;;;;;;;;;6284767;28;19960;-88
2023/11/05 18:13:51;;;;;;;;;;;;;;;;;;6285415;28;19931;-88
2023/11/05 18:16:52;;;;;;;;;;;;;;;;;;6283488;28;20379;-88
2023/11/05 18:19:52;;;;;;;;;;;;;;;;;;6291496;28;19921;-88
2023/11/05 18:22:52;;;;;;;;;;;;;;;;;;6274167;28;19916;-89
2023/11/05 18:25:52;;;;;;;;;;;;;;;;;;6271678;28;20150;-88
2023/11/05 18:28:52;;;;;;;;;;;;;;;;;;6271981;28;19921;-88
2023/11/05 18:31:52;;;;;;;;;;;;;;;;;;6271961;28;19924;-89
2023/11/05 18:34:52;;;;;;;;;;;;;;;;;;6298327;28;19932;-88
2023/11/05 18:37:52;;;;;;;;;;;;;;;;;;6294223;28;19916;-88
2023/11/05 18:40:53;;;;;;;;;;;;;;;;;;6279345;28;19919;-89
2023/11/05 18:43:53;;;;;;;;;;;;;;;;;;6296630;28;19916;-88
2023/11/05 18:46:53;;;;;;;;;;;;;;;;;;6309623;28;19986;-89
2023/11/05 18:49:56;;;;;;;;;;;;;;;;;;6294335;28;19916;-88
2023/11/05 18:52:56;;;;;;;;;;;;;;;;;;6280700;28;19913;-88
2023/11/05 18:55:56;;;;;;;;;;;;;;;;;;6293408;28;19916;-88
2023/11/05 18:58:56;;;;;;;;;;;;;;;;;;6311880;28;19987;-88
2023/11/05 19:01:56;;;;;;;;;;;;;;;;;;6292359;28;19967;-89
2023/11/05 19:04:57;;;;;;;;;;;;;;;;;;6286412;28;19912;-88
2023/11/05 19:07:57;;;;;;;;;;;;;;;;;;6281917;28;19958;-88
2023/11/05 19:10:59;;;;;;;;;;;;;;;;;;6280128;28;19985;-88
2023/11/05 19:13:59;;;;;;;;;;;;;;;;;;6272055;28;19917;-88
2023/11/05 19:16:59;;;;;;;;;;;;;;;;;;6309990;28;19962;-88
2023/11/05 19:19:59;;;;;;;;;;;;;;;;;;6276941;28;19923;-88
2023/11/05 19:22:59;;;;;;;;;;;;;;;;;;6270884;28;19919;-88
2023/11/05 19:26:00;;;;;;;;;;;;;;;;;;6278027;28;19913;-88
2023/11/05 19:29:04;;;;;;;;;;;;;;;;;;6294719;28;20007;-80
2023/11/05 19:32:06;;;;;;;;;;;;;;;;;;6294491;28;19921;-80
2023/11/05 19:35:06;;;;;;;;;;;;;;;;;;6294151;28;19916;-80
2023/11/05 19:38:07;;;;;;;;;;;;;;;;;;6274131;28;19936;-82
2023/11/05 19:41:07;;;;;;;;;;;;;;;;;;6270272;28;19966;-80
2023/11/05 19:44:07;;;;;;;;;;;;;;;;;;6269882;28;19913;-80
2023/11/05 19:47:09;;;;;;;;;;;;;;;;;;6294207;28;19938;-80
2023/11/05 19:50:11;;;;;;;;;;;;;;;;;;6308150;28;20079;-80
2023/11/05 19:53:12;;;;;;;;;;;;;;;;;;6293020;28;19921;-80
2023/11/05 19:56:12;;;;;;;;;;;;;;;;;;6293814;28;19955;-81
2023/11/05 19:59:12;;;;;;;;;;;;;;;;;;6300022;28;19917;-82
2023/11/05 20:02:14;;;;;;;;;;;;;;;;;;6277770;28;19931;-81
2023/11/05 20:05:15;;;;;;;;;;;;;;;;;;6294096;28;20436;-80
2023/11/05 20:08:15;;;;;;;;;;;;;;;;;;6303168;28;19916;-80
2023/11/05 20:11:15;;;;;;;;;;;;;;;;;;6287085;28;19912;-80
2023/11/05 20:14:16;;;;;;;;;;;;;;;;;;6294272;28;19912;-79
2023/11/05 20:17:16;;;;;;;;;;;;;;;;;;6293267;28;19916;-80
2023/11/05 20:20:16;;;;;;;;;;;;;;;;;;6268479;28;20011;-80
2023/11/05 20:23:16;;;;;;;;;;;;;;;;;;6294924;28;19932;-80
2023/11/05 20:26:17;;;;;;;;;;;;;;;;;;5959643;28;9999695;-80
2023/11/05 20:29:17;;;;;;;;;;;;;;;;;;6293038;28;20003;-80
2023/11/05 20:32:18;;;;;;;;;;;;;;;;;;6279018;28;19939;-79
2023/11/05 20:35:18;;;;;;;;;;;;;;;;;;6268330;28;20293;-80
2023/11/05 20:38:18;;;;;;;;;;;;;;;;;;6272433;28;19924;-80
2023/11/05 20:41:18;;;;;;;;;;;;;;;;;;6271465;28;19951;-82
2023/11/05 20:44:18;;;;;;;;;;;;;;;;;;6272149;28;19916;-80